sensor_id;sensor_type;location;lat;lon;timestamp;temperature;humidity
42615;DHT22;28754;47.700;7.924;2023-03-23T00:02:04;12.70;99.90
42615;DHT22;28754;47.700;7.924;2023-03-23T00:04:51;12.60;99.90
42615;DHT22;28754;47.700;7.924;2023-03-23T00:07:37;12.60;99.90
42615;DHT22;28754;47.700;7.924;2023-03-23T00:10:24;12.60;99.90
42615;DHT22;28754;47.700;7.924;2023-03-23T00:13:12;12.70;99.90
42615;DHT22;28754;47.700;7.924;2023-03-23T00:15:59;12.70;99.90
42615;DHT22;28754;47.700;7.924;2023-03-23T00:18:46;12.70;99.90
42615;DHT22;28754;47.700;7.924;2023-03-23T00:21:36;12.70;99.90
42615;DHT22;28754;47.700;7.924;2023-03-23T00:24:24;12.70;99.90
42615;DHT22;28754;47.700;7.924;2023-03-23T00:27:11;12.60;99.90
42615;DHT22;28754;47.700;7.924;2023-03-23T00:29:58;12.80;99.90
42615;DHT22;28754;47.700;7.924;2023-03-23T00:32:45;12.80;99.90
42615;DHT22;28754;47.700;7.924;2023-03-23T00:35:32;12.80;99.90
42615;DHT22;28754;47.700;7.924;2023-03-23T00:38:19;12.80;99.90
42615;DHT22;28754;47.700;7.924;2023-03-23T00:41:05;12.80;99.90
42615;DHT22;28754;47.700;7.924;2023-03-23T00:43:53;12.80;99.90
42615;DHT22;28754;47.700;7.924;2023-03-23T00:46:40;12.80;99.90
42615;DHT22;28754;47.700;7.924;2023-03-23T00:49:30;12.70;99.90
42615;DHT22;28754;47.700;7.924;2023-03-23T00:52:20;12.60;99.90
42615;DHT22;28754;47.700;7.924;2023-03-23T00:55:07;12.70;99.90
42615;DHT22;28754;47.700;7.924;2023-03-23T00:57:53;12.70;99.90
42615;DHT22;28754;47.700;7.924;2023-03-23T01:00:41;12.70;99.90
42615;DHT22;28754;47.700;7.924;2023-03-23T01:03:27;12.80;99.90
42615;DHT22;28754;47.700;7.924;2023-03-23T01:06:18;12.70;99.90
42615;DHT22;28754;47.700;7.924;2023-03-23T01:09:06;12.80;99.90
42615;DHT22;28754;47.700;7.924;2023-03-23T01:11:53;12.90;99.90
42615;DHT22;28754;47.700;7.924;2023-03-23T01:14:41;12.80;99.90
42615;DHT22;28754;47.700;7.924;2023-03-23T01:17:29;12.90;99.90
42615;DHT22;28754;47.700;7.924;2023-03-23T01:20:16;12.90;99.90
42615;DHT22;28754;47.700;7.924;2023-03-23T01:23:02;13.00;99.90
42615;DHT22;28754;47.700;7.924;2023-03-23T01:25:49;12.90;99.90
42615;DHT22;28754;47.700;7.924;2023-03-23T01:28:36;13.00;99.90
42615;DHT22;28754;47.700;7.924;2023-03-23T01:31:24;13.00;99.90
42615;DHT22;28754;47.700;7.924;2023-03-23T01:34:12;13.10;99.90
42615;DHT22;28754;47.700;7.924;2023-03-23T01:36:58;13.10;99.90
42615;DHT22;28754;47.700;7.924;2023-03-23T01:39:45;13.10;99.90
42615;DHT22;28754;47.700;7.924;2023-03-23T01:42:33;13.10;99.90
42615;DHT22;28754;47.700;7.924;2023-03-23T01:45:24;13.00;99.90
42615;DHT22;28754;47.700;7.924;2023-03-23T01:48:16;12.70;99.90
42615;DHT22;28754;47.700;7.924;2023-03-23T01:51:08;12.70;99.90
42615;DHT22;28754;47.700;7.924;2023-03-23T01:53:58;12.70;99.90
42615;DHT22;28754;47.700;7.924;2023-03-23T01:56:48;12.80;99.90
42615;DHT22;28754;47.700;7.924;2023-03-23T01:59:37;12.90;99.90
42615;DHT22;28754;47.700;7.924;2023-03-23T02:02:45;12.90;99.90
42615;DHT22;28754;47.700;7.924;2023-03-23T02:05:39;13.00;99.90
42615;DHT22;28754;47.700;7.924;2023-03-23T02:08:33;13.00;99.90
42615;DHT22;28754;47.700;7.924;2023-03-23T02:11:21;13.00;99.90
42615;DHT22;28754;47.700;7.924;2023-03-23T02:14:08;13.00;99.90
42615;DHT22;28754;47.700;7.924;2023-03-23T02:17:05;12.80;99.90
42615;DHT22;28754;47.700;7.924;2023-03-23T02:26:56;12.80;99.90
42615;DHT22;28754;47.700;7.924;2023-03-23T02:32:44;12.90;99.90
42615;DHT22;28754;47.700;7.924;2023-03-23T02:35:58;13.00;99.90
42615;DHT22;28754;47.700;7.924;2023-03-23T02:38:50;12.90;99.90
42615;DHT22;28754;47.700;7.924;2023-03-23T02:41:54;13.00;99.90
42615;DHT22;28754;47.700;7.924;2023-03-23T02:44:45;12.90;99.90
42615;DHT22;28754;47.700;7.924;2023-03-23T02:47:34;12.80;99.90
42615;DHT22;28754;47.700;7.924;2023-03-23T02:50:23;12.60;99.90
42615;DHT22;28754;47.700;7.924;2023-03-23T02:53:13;12.70;99.90
42615;DHT22;28754;47.700;7.924;2023-03-23T02:56:04;12.80;99.90
42615;DHT22;28754;47.700;7.924;2023-03-23T02:58:54;12.90;99.90
42615;DHT22;28754;47.700;7.924;2023-03-23T03:04:28;13.00;99.90
42615;DHT22;28754;47.700;7.924;2023-03-23T03:10:55;13.10;99.90
42615;DHT22;28754;47.700;7.924;2023-03-23T03:13:57;13.00;99.90
42615;DHT22;28754;47.700;7.924;2023-03-23T03:17:00;13.00;99.90
42615;DHT22;28754;47.700;7.924;2023-03-23T03:20:20;12.80;99.90
42615;DHT22;28754;47.700;7.924;2023-03-23T03:23:08;12.90;99.90
42615;DHT22;28754;47.700;7.924;2023-03-23T03:25:59;12.90;99.90
42615;DHT22;28754;47.700;7.924;2023-03-23T03:29:00;12.90;99.90
42615;DHT22;28754;47.700;7.924;2023-03-23T03:31:48;12.90;99.90
42615;DHT22;28754;47.700;7.924;2023-03-23T03:34:36;12.90;99.90
42615;DHT22;28754;47.700;7.924;2023-03-23T03:37:24;12.90;99.90
42615;DHT22;28754;47.700;7.924;2023-03-23T03:40:14;13.00;99.90
42615;DHT22;28754;47.700;7.924;2023-03-23T03:43:02;13.00;99.90
42615;DHT22;28754;47.700;7.924;2023-03-23T03:45:50;13.00;99.90
42615;DHT22;28754;47.700;7.924;2023-03-23T03:48:36;13.00;99.90
42615;DHT22;28754;47.700;7.924;2023-03-23T03:51:23;13.00;99.90
42615;DHT22;28754;47.700;7.924;2023-03-23T03:54:13;13.00;99.90
42615;DHT22;28754;47.700;7.924;2023-03-23T03:56:59;12.90;99.90
42615;DHT22;28754;47.700;7.924;2023-03-23T03:59:55;12.90;99.90
42615;DHT22;28754;47.700;7.924;2023-03-23T04:03:00;12.80;99.90
42615;DHT22;28754;47.700;7.924;2023-03-23T04:06:09;12.80;99.90
42615;DHT22;28754;47.700;7.924;2023-03-23T04:08:58;12.80;99.90
42615;DHT22;28754;47.700;7.924;2023-03-23T04:11:47;12.80;99.90
42615;DHT22;28754;47.700;7.924;2023-03-23T04:14:56;12.80;99.90
42615;DHT22;28754;47.700;7.924;2023-03-23T04:17:50;12.70;99.90
42615;DHT22;28754;47.700;7.924;2023-03-23T04:20:37;12.70;99.90
42615;DHT22;28754;47.700;7.924;2023-03-23T04:23:25;12.70;99.90
42615;DHT22;28754;47.700;7.924;2023-03-23T04:26:12;12.80;99.90
42615;DHT22;28754;47.700;7.924;2023-03-23T04:29:06;12.80;99.90
42615;DHT22;28754;47.700;7.924;2023-03-23T04:32:14;12.90;99.90
42615;DHT22;28754;47.700;7.924;2023-03-23T04:35:09;12.90;99.90
42615;DHT22;28754;47.700;7.924;2023-03-23T04:38:02;12.90;99.90
42615;DHT22;28754;47.700;7.924;2023-03-23T04:40:49;12.80;99.90
42615;DHT22;28754;47.700;7.924;2023-03-23T04:43:54;12.80;99.90
42615;DHT22;28754;47.700;7.924;2023-03-23T04:46:50;12.80;99.90
42615;DHT22;28754;47.700;7.924;2023-03-23T04:49:39;12.80;99.90
42615;DHT22;28754;47.700;7.924;2023-03-23T04:52:34;12.70;99.90
42615;DHT22;28754;47.700;7.924;2023-03-23T04:55:25;12.70;99.90
42615;DHT22;28754;47.700;7.924;2023-03-23T04:58:16;12.70;99.90
42615;DHT22;28754;47.700;7.924;2023-03-23T05:01:19;12.80;99.90
42615;DHT22;28754;47.700;7.924;2023-03-23T05:04:16;12.70;99.90
42615;DHT22;28754;47.700;7.924;2023-03-23T05:07:11;12.80;99.90
42615;DHT22;28754;47.700;7.924;2023-03-23T05:10:03;12.70;99.90
42615;DHT22;28754;47.700;7.924;2023-03-23T05:12:52;12.70;99.90
42615;DHT22;28754;47.700;7.924;2023-03-23T05:15:39;12.70;99.90
42615;DHT22;28754;47.700;7.924;2023-03-23T05:18:29;12.70;99.90
42615;DHT22;28754;47.700;7.924;2023-03-23T05:21:18;12.70;99.90
42615;DHT22;28754;47.700;7.924;2023-03-23T05:24:09;12.70;99.90
42615;DHT22;28754;47.700;7.924;2023-03-23T05:26:56;12.70;99.90
42615;DHT22;28754;47.700;7.924;2023-03-23T05:29:50;12.60;99.90
42615;DHT22;28754;47.700;7.924;2023-03-23T05:32:38;12.60;99.90
42615;DHT22;28754;47.700;7.924;2023-03-23T05:35:41;12.70;99.90
42615;DHT22;28754;47.700;7.924;2023-03-23T05:38:28;12.70;99.90
42615;DHT22;28754;47.700;7.924;2023-03-23T05:41:16;12.70;99.90
42615;DHT22;28754;47.700;7.924;2023-03-23T05:44:03;12.70;99.90
42615;DHT22;28754;47.700;7.924;2023-03-23T05:47:06;12.70;99.90
42615;DHT22;28754;47.700;7.924;2023-03-23T05:49:54;12.70;99.90
42615;DHT22;28754;47.700;7.924;2023-03-23T05:52:44;12.80;99.90
42615;DHT22;28754;47.700;7.924;2023-03-23T05:55:33;12.80;99.90
42615;DHT22;28754;47.700;7.924;2023-03-23T05:58:29;12.80;99.90
42615;DHT22;28754;47.700;7.924;2023-03-23T06:01:16;12.80;99.90
42615;DHT22;28754;47.700;7.924;2023-03-23T06:04:02;12.80;99.90
42615;DHT22;28754;47.700;7.924;2023-03-23T06:07:03;12.80;99.90
42615;DHT22;28754;47.700;7.924;2023-03-23T06:09:50;12.90;99.90
42615;DHT22;28754;47.700;7.924;2023-03-23T06:12:43;13.00;99.90
42615;DHT22;28754;47.700;7.924;2023-03-23T06:15:30;13.00;99.90
42615;DHT22;28754;47.700;7.924;2023-03-23T06:18:36;13.30;99.90
42615;DHT22;28754;47.700;7.924;2023-03-23T06:21:55;13.30;99.90
42615;DHT22;28754;47.700;7.924;2023-03-23T06:25:00;13.30;99.90
42615;DHT22;28754;47.700;7.924;2023-03-23T06:27:54;13.30;99.90
42615;DHT22;28754;47.700;7.924;2023-03-23T06:30:41;13.20;99.90
42615;DHT22;28754;47.700;7.924;2023-03-23T06:33:28;12.90;99.90
42615;DHT22;28754;47.700;7.924;2023-03-23T06:36:24;12.80;99.90
42615;DHT22;28754;47.700;7.924;2023-03-23T06:39:45;12.80;99.90
42615;DHT22;28754;47.700;7.924;2023-03-23T06:42:41;12.80;99.90
42615;DHT22;28754;47.700;7.924;2023-03-23T06:45:48;12.90;99.90
42615;DHT22;28754;47.700;7.924;2023-03-23T06:48:55;12.80;99.90
42615;DHT22;28754;47.700;7.924;2023-03-23T06:51:50;12.70;99.90
42615;DHT22;28754;47.700;7.924;2023-03-23T06:54:36;12.70;99.90
42615;DHT22;28754;47.700;7.924;2023-03-23T06:57:25;12.50;99.90
42615;DHT22;28754;47.700;7.924;2023-03-23T07:00:12;12.50;99.90
42615;DHT22;28754;47.700;7.924;2023-03-23T07:03:02;12.60;99.90
42615;DHT22;28754;47.700;7.924;2023-03-23T07:05:50;12.70;99.90
42615;DHT22;28754;47.700;7.924;2023-03-23T07:08:41;12.80;99.90
42615;DHT22;28754;47.700;7.924;2023-03-23T07:11:33;12.60;99.90
42615;DHT22;28754;47.700;7.924;2023-03-23T07:14:26;12.60;99.90
42615;DHT22;28754;47.700;7.924;2023-03-23T07:17:13;12.50;99.90
42615;DHT22;28754;47.700;7.924;2023-03-23T07:20:13;12.40;99.90
42615;DHT22;28754;47.700;7.924;2023-03-23T07:23:01;12.40;99.90
42615;DHT22;28754;47.700;7.924;2023-03-23T07:26:08;12.50;99.90
42615;DHT22;28754;47.700;7.924;2023-03-23T07:28:59;12.50;99.90
42615;DHT22;28754;47.700;7.924;2023-03-23T07:31:53;12.60;99.90
42615;DHT22;28754;47.700;7.924;2023-03-23T07:34:40;12.60;99.90
42615;DHT22;28754;47.700;7.924;2023-03-23T07:38:05;12.60;99.90
42615;DHT22;28754;47.700;7.924;2023-03-23T07:40:54;12.70;99.90
42615;DHT22;28754;47.700;7.924;2023-03-23T07:43:41;12.60;99.90
42615;DHT22;28754;47.700;7.924;2023-03-23T07:46:31;12.80;99.90
42615;DHT22;28754;47.700;7.924;2023-03-23T07:49:28;13.00;99.90
42615;DHT22;28754;47.700;7.924;2023-03-23T07:52:26;13.00;99.90
42615;DHT22;28754;47.700;7.924;2023-03-23T07:55:18;13.10;99.90
42615;DHT22;28754;47.700;7.924;2023-03-23T07:58:13;13.40;99.90
42615;DHT22;28754;47.700;7.924;2023-03-23T08:01:05;13.70;99.90
42615;DHT22;28754;47.700;7.924;2023-03-23T08:03:56;13.90;99.90
42615;DHT22;28754;47.700;7.924;2023-03-23T08:07:05;13.80;99.90
42615;DHT22;28754;47.700;7.924;2023-03-23T08:10:02;13.60;99.90
42615;DHT22;28754;47.700;7.924;2023-03-23T08:13:10;13.50;99.90
42615;DHT22;28754;47.700;7.924;2023-03-23T08:16:03;13.60;99.90
42615;DHT22;28754;47.700;7.924;2023-03-23T08:19:02;13.40;99.90
42615;DHT22;28754;47.700;7.924;2023-03-23T08:22:00;13.10;99.90
42615;DHT22;28754;47.700;7.924;2023-03-23T08:25:17;13.30;99.90
42615;DHT22;28754;47.700;7.924;2023-03-23T08:28:20;13.60;99.90
42615;DHT22;28754;47.700;7.924;2023-03-23T08:31:25;14.10;99.90
42615;DHT22;28754;47.700;7.924;2023-03-23T08:34:33;14.30;99.90
42615;DHT22;28754;47.700;7.924;2023-03-23T08:37:43;14.00;99.90
42615;DHT22;28754;47.700;7.924;2023-03-23T08:40:58;13.70;99.90
42615;DHT22;28754;47.700;7.924;2023-03-23T08:44:16;13.30;99.90
42615;DHT22;28754;47.700;7.924;2023-03-23T08:47:14;13.10;99.90
42615;DHT22;28754;47.700;7.924;2023-03-23T08:50:26;13.30;99.90
42615;DHT22;28754;47.700;7.924;2023-03-23T08:53:32;13.20;99.90
42615;DHT22;28754;47.700;7.924;2023-03-23T08:56:42;13.30;99.90
42615;DHT22;28754;47.700;7.924;2023-03-23T08:59:50;13.50;99.90
42615;DHT22;28754;47.700;7.924;2023-03-23T09:03:00;13.70;99.90
42615;DHT22;28754;47.700;7.924;2023-03-23T09:05:59;14.30;99.90
42615;DHT22;28754;47.700;7.924;2023-03-23T09:08:56;14.90;99.90
42615;DHT22;28754;47.700;7.924;2023-03-23T09:11:43;15.10;99.90
42615;DHT22;28754;47.700;7.924;2023-03-23T09:14:29;14.80;99.90
42615;DHT22;28754;47.700;7.924;2023-03-23T09:17:16;14.00;99.90
42615;DHT22;28754;47.700;7.924;2023-03-23T09:20:03;13.60;99.90
42615;DHT22;28754;47.700;7.924;2023-03-23T09:22:57;13.30;99.90
42615;DHT22;28754;47.700;7.924;2023-03-23T09:25:44;13.30;99.90
42615;DHT22;28754;47.700;7.924;2023-03-23T09:28:30;13.50;99.90
42615;DHT22;28754;47.700;7.924;2023-03-23T09:31:17;13.70;99.90
42615;DHT22;28754;47.700;7.924;2023-03-23T09:34:06;13.90;99.90
42615;DHT22;28754;47.700;7.924;2023-03-23T09:36:55;13.80;99.90
42615;DHT22;28754;47.700;7.924;2023-03-23T09:39:42;13.90;99.90
42615;DHT22;28754;47.700;7.924;2023-03-23T09:45:19;13.80;99.90
42615;DHT22;28754;47.700;7.924;2023-03-23T09:48:33;14.00;99.90
42615;DHT22;28754;47.700;7.924;2023-03-23T09:51:35;14.20;99.90
42615;DHT22;28754;47.700;7.924;2023-03-23T09:54:28;14.20;99.90
42615;DHT22;28754;47.700;7.924;2023-03-23T10:00:14;14.10;99.90
42615;DHT22;28754;47.700;7.924;2023-03-23T10:06:12;14.30;99.90
42615;DHT22;28754;47.700;7.924;2023-03-23T10:09:06;14.30;99.90
42615;DHT22;28754;47.700;7.924;2023-03-23T10:12:07;14.10;99.90
42615;DHT22;28754;47.700;7.924;2023-03-23T10:15:20;14.20;99.90
42615;DHT22;28754;47.700;7.924;2023-03-23T10:18:19;14.30;99.90
42615;DHT22;28754;47.700;7.924;2023-03-23T10:21:11;14.40;99.90
42615;DHT22;28754;47.700;7.924;2023-03-23T10:24:04;14.50;99.90
42615;DHT22;28754;47.700;7.924;2023-03-23T10:27:01;14.30;99.90
42615;DHT22;28754;47.700;7.924;2023-03-23T10:33:50;14.20;99.90
42615;DHT22;28754;47.700;7.924;2023-03-23T10:39:20;14.10;99.90
42615;DHT22;28754;47.700;7.924;2023-03-23T10:42:09;14.50;99.90
42615;DHT22;28754;47.700;7.924;2023-03-23T10:44:58;14.30;99.90
42615;DHT22;28754;47.700;7.924;2023-03-23T10:47:49;14.50;99.90
42615;DHT22;28754;47.700;7.924;2023-03-23T10:50:38;14.60;99.90
42615;DHT22;28754;47.700;7.924;2023-03-23T10:53:33;15.00;99.90
42615;DHT22;28754;47.700;7.924;2023-03-23T10:56:29;14.80;99.90
42615;DHT22;28754;47.700;7.924;2023-03-23T10:59:26;15.10;99.90
42615;DHT22;28754;47.700;7.924;2023-03-23T11:02:16;15.20;99.90
42615;DHT22;28754;47.700;7.924;2023-03-23T11:05:21;15.00;99.90
42615;DHT22;28754;47.700;7.924;2023-03-23T11:08:15;15.00;99.90
42615;DHT22;28754;47.700;7.924;2023-03-23T11:11:11;14.50;99.90
42615;DHT22;28754;47.700;7.924;2023-03-23T11:14:15;14.30;99.90
42615;DHT22;28754;47.700;7.924;2023-03-23T11:17:05;14.70;99.90
42615;DHT22;28754;47.700;7.924;2023-03-23T11:20:18;15.20;99.90
42615;DHT22;28754;47.700;7.924;2023-03-23T11:23:10;15.50;99.90
42615;DHT22;28754;47.700;7.924;2023-03-23T11:29:12;15.30;99.90
42615;DHT22;28754;47.700;7.924;2023-03-23T11:32:10;15.30;99.90
42615;DHT22;28754;47.700;7.924;2023-03-23T11:34:59;15.00;99.90
42615;DHT22;28754;47.700;7.924;2023-03-23T11:37:54;15.10;99.90
42615;DHT22;28754;47.700;7.924;2023-03-23T11:40:44;15.20;99.90
42615;DHT22;28754;47.700;7.924;2023-03-23T11:43:34;15.20;99.90
42615;DHT22;28754;47.700;7.924;2023-03-23T11:49:26;15.00;99.90
42615;DHT22;28754;47.700;7.924;2023-03-23T11:52:26;15.10;99.90
42615;DHT22;28754;47.700;7.924;2023-03-23T11:55:25;14.90;99.90
42615;DHT22;28754;47.700;7.924;2023-03-23T11:58:18;14.90;99.90
42615;DHT22;28754;47.700;7.924;2023-03-23T12:01:11;15.10;99.90
42615;DHT22;28754;47.700;7.924;2023-03-23T12:19:58;15.00;99.90
42615;DHT22;28754;47.700;7.924;2023-03-23T12:23:45;15.00;99.90
42615;DHT22;28754;47.700;7.924;2023-03-23T12:26:20;15.00;99.90
42615;DHT22;28754;47.700;7.924;2023-03-23T12:29:18;14.90;99.90
42615;DHT22;28754;47.700;7.924;2023-03-23T12:32:30;14.90;99.90
42615;DHT22;28754;47.700;7.924;2023-03-23T12:35:32;14.60;99.90
42615;DHT22;28754;47.700;7.924;2023-03-23T12:38:25;14.70;99.90
42615;DHT22;28754;47.700;7.924;2023-03-23T12:41:19;14.70;99.90
42615;DHT22;28754;47.700;7.924;2023-03-23T12:44:13;15.00;99.90
42615;DHT22;28754;47.700;7.924;2023-03-23T12:47:49;15.20;99.90
42615;DHT22;28754;47.700;7.924;2023-03-23T12:53:33;14.80;99.90
42615;DHT22;28754;47.700;7.924;2023-03-23T12:56:32;14.70;99.90
42615;DHT22;28754;47.700;7.924;2023-03-23T12:59:24;14.60;99.90
42615;DHT22;28754;47.700;7.924;2023-03-23T13:02:30;14.50;99.90
42615;DHT22;28754;47.700;7.924;2023-03-23T13:08:18;14.70;99.90
42615;DHT22;28754;47.700;7.924;2023-03-23T13:11:14;14.50;99.90
42615;DHT22;28754;47.700;7.924;2023-03-23T13:17:41;14.40;99.90
42615;DHT22;28754;47.700;7.924;2023-03-23T13:20:40;14.40;99.90
42615;DHT22;28754;47.700;7.924;2023-03-23T13:23:38;14.30;99.90
42615;DHT22;28754;47.700;7.924;2023-03-23T13:26:27;14.40;99.90
42615;DHT22;28754;47.700;7.924;2023-03-23T13:29:17;14.30;99.90
42615;DHT22;28754;47.700;7.924;2023-03-23T13:32:09;14.20;99.90
42615;DHT22;28754;47.700;7.924;2023-03-23T13:35:00;14.40;99.90
42615;DHT22;28754;47.700;7.924;2023-03-23T13:37:54;14.30;99.90
42615;DHT22;28754;47.700;7.924;2023-03-23T13:40:42;14.20;99.90
42615;DHT22;28754;47.700;7.924;2023-03-23T13:43:31;14.30;99.90
42615;DHT22;28754;47.700;7.924;2023-03-23T13:54:47;14.00;99.90
42615;DHT22;28754;47.700;7.924;2023-03-23T13:57:48;13.80;99.90
42615;DHT22;28754;47.700;7.924;2023-03-23T14:00:44;13.80;99.90
42615;DHT22;28754;47.700;7.924;2023-03-23T14:06:19;13.70;99.90
42615;DHT22;28754;47.700;7.924;2023-03-23T14:09:31;13.90;99.90
42615;DHT22;28754;47.700;7.924;2023-03-23T14:12:21;13.90;99.90
42615;DHT22;28754;47.700;7.924;2023-03-23T14:15:13;13.90;99.90
42615;DHT22;28754;47.700;7.924;2023-03-23T14:18:01;13.90;99.90
42615;DHT22;28754;47.700;7.924;2023-03-23T14:20:50;13.90;99.90
42615;DHT22;28754;47.700;7.924;2023-03-23T14:23:36;14.00;99.90
42615;DHT22;28754;47.700;7.924;2023-03-23T14:26:23;13.50;99.90
42615;DHT22;28754;47.700;7.924;2023-03-23T14:29:10;13.50;99.90
42615;DHT22;28754;47.700;7.924;2023-03-23T14:31:58;13.60;99.90
42615;DHT22;28754;47.700;7.924;2023-03-23T14:34:47;13.40;99.90
42615;DHT22;28754;47.700;7.924;2023-03-23T14:37:34;13.30;99.90
42615;DHT22;28754;47.700;7.924;2023-03-23T14:40:21;13.40;99.90
42615;DHT22;28754;47.700;7.924;2023-03-23T14:43:09;13.40;99.90
42615;DHT22;28754;47.700;7.924;2023-03-23T14:46:00;13.40;99.90
42615;DHT22;28754;47.700;7.924;2023-03-23T14:48:50;13.40;99.90
42615;DHT22;28754;47.700;7.924;2023-03-23T14:51:37;13.40;99.90
42615;DHT22;28754;47.700;7.924;2023-03-23T14:54:27;13.30;99.90
42615;DHT22;28754;47.700;7.924;2023-03-23T14:57:19;13.60;99.90
42615;DHT22;28754;47.700;7.924;2023-03-23T15:00:10;13.60;99.90
42615;DHT22;28754;47.700;7.924;2023-03-23T15:03:01;13.80;99.90
42615;DHT22;28754;47.700;7.924;2023-03-23T15:05:54;14.10;99.90
42615;DHT22;28754;47.700;7.924;2023-03-23T15:08:44;14.20;99.90
42615;DHT22;28754;47.700;7.924;2023-03-23T15:11:33;14.20;99.90
42615;DHT22;28754;47.700;7.924;2023-03-23T15:14:23;14.10;99.90
42615;DHT22;28754;47.700;7.924;2023-03-23T15:17:20;14.00;99.90
42615;DHT22;28754;47.700;7.924;2023-03-23T15:20:10;14.20;99.90
42615;DHT22;28754;47.700;7.924;2023-03-23T15:23:22;14.10;99.90
42615;DHT22;28754;47.700;7.924;2023-03-23T15:26:18;14.10;99.90
42615;DHT22;28754;47.700;7.924;2023-03-23T15:29:12;14.20;99.90
42615;DHT22;28754;47.700;7.924;2023-03-23T15:32:02;14.20;99.90
42615;DHT22;28754;47.700;7.924;2023-03-23T15:34:50;14.20;99.90
42615;DHT22;28754;47.700;7.924;2023-03-23T15:37:39;14.20;99.90
42615;DHT22;28754;47.700;7.924;2023-03-23T15:40:32;14.20;99.90
42615;DHT22;28754;47.700;7.924;2023-03-23T15:43:27;14.10;99.90
42615;DHT22;28754;47.700;7.924;2023-03-23T15:46:22;14.10;99.90
42615;DHT22;28754;47.700;7.924;2023-03-23T15:49:10;14.10;99.90
42615;DHT22;28754;47.700;7.924;2023-03-23T15:51:59;13.90;99.90
42615;DHT22;28754;47.700;7.924;2023-03-23T15:54:46;13.90;99.90
42615;DHT22;28754;47.700;7.924;2023-03-23T15:57:34;13.90;99.90
42615;DHT22;28754;47.700;7.924;2023-03-23T16:00:21;13.90;99.90
42615;DHT22;28754;47.700;7.924;2023-03-23T16:03:16;13.90;99.90
42615;DHT22;28754;47.700;7.924;2023-03-23T16:06:08;13.90;99.90
42615;DHT22;28754;47.700;7.924;2023-03-23T16:08:56;13.80;99.90
42615;DHT22;28754;47.700;7.924;2023-03-23T16:11:43;13.80;99.90
42615;DHT22;28754;47.700;7.924;2023-03-23T16:14:30;13.60;99.90
42615;DHT22;28754;47.700;7.924;2023-03-23T16:17:18;13.50;99.90
42615;DHT22;28754;47.700;7.924;2023-03-23T16:20:13;13.30;99.90
42615;DHT22;28754;47.700;7.924;2023-03-23T16:23:07;13.20;99.90
42615;DHT22;28754;47.700;7.924;2023-03-23T16:25:53;13.20;99.90
42615;DHT22;28754;47.700;7.924;2023-03-23T16:28:45;13.10;99.90
42615;DHT22;28754;47.700;7.924;2023-03-23T16:31:32;12.90;99.90
42615;DHT22;28754;47.700;7.924;2023-03-23T16:34:18;13.00;99.90
42615;DHT22;28754;47.700;7.924;2023-03-23T16:37:05;13.10;99.90
42615;DHT22;28754;47.700;7.924;2023-03-23T16:39:52;13.10;99.90
42615;DHT22;28754;47.700;7.924;2023-03-23T16:42:38;13.10;99.90
42615;DHT22;28754;47.700;7.924;2023-03-23T16:45:26;13.00;99.90
42615;DHT22;28754;47.700;7.924;2023-03-23T16:48:13;13.10;99.90
42615;DHT22;28754;47.700;7.924;2023-03-23T16:51:01;13.10;99.90
42615;DHT22;28754;47.700;7.924;2023-03-23T16:53:47;13.20;99.90
42615;DHT22;28754;47.700;7.924;2023-03-23T16:56:34;13.30;99.90
42615;DHT22;28754;47.700;7.924;2023-03-23T16:59:21;13.30;99.90
42615;DHT22;28754;47.700;7.924;2023-03-23T17:02:11;13.40;99.90
42615;DHT22;28754;47.700;7.924;2023-03-23T17:04:58;13.40;99.90
42615;DHT22;28754;47.700;7.924;2023-03-23T17:08:02;13.50;99.90
42615;DHT22;28754;47.700;7.924;2023-03-23T17:10:50;13.50;99.90
42615;DHT22;28754;47.700;7.924;2023-03-23T17:13:36;13.50;99.90
42615;DHT22;28754;47.700;7.924;2023-03-23T17:16:25;13.50;99.90
42615;DHT22;28754;47.700;7.924;2023-03-23T17:19:12;13.50;99.90
42615;DHT22;28754;47.700;7.924;2023-03-23T17:22:01;13.40;99.90
42615;DHT22;28754;47.700;7.924;2023-03-23T17:24:48;13.40;99.90
42615;DHT22;28754;47.700;7.924;2023-03-23T17:27:35;13.30;99.90
42615;DHT22;28754;47.700;7.924;2023-03-23T17:30:22;13.30;99.90
42615;DHT22;28754;47.700;7.924;2023-03-23T17:33:09;13.30;99.90
42615;DHT22;28754;47.700;7.924;2023-03-23T17:35:57;13.30;99.90
42615;DHT22;28754;47.700;7.924;2023-03-23T17:38:43;13.30;99.90
42615;DHT22;28754;47.700;7.924;2023-03-23T17:41:30;13.20;99.90
42615;DHT22;28754;47.700;7.924;2023-03-23T17:44:17;13.20;99.90
42615;DHT22;28754;47.700;7.924;2023-03-23T17:47:03;13.10;99.90
42615;DHT22;28754;47.700;7.924;2023-03-23T17:49:51;13.20;99.90
42615;DHT22;28754;47.700;7.924;2023-03-23T17:52:37;13.10;99.90
42615;DHT22;28754;47.700;7.924;2023-03-23T17:55:23;13.10;99.90
42615;DHT22;28754;47.700;7.924;2023-03-23T17:58:10;13.10;99.90
42615;DHT22;28754;47.700;7.924;2023-03-23T18:00:57;13.10;99.90
42615;DHT22;28754;47.700;7.924;2023-03-23T18:03:44;13.00;99.90
42615;DHT22;28754;47.700;7.924;2023-03-23T18:06:33;13.00;99.90
42615;DHT22;28754;47.700;7.924;2023-03-23T18:09:23;13.00;99.90
42615;DHT22;28754;47.700;7.924;2023-03-23T18:12:10;12.90;99.90
42615;DHT22;28754;47.700;7.924;2023-03-23T18:14:57;12.90;99.90
42615;DHT22;28754;47.700;7.924;2023-03-23T18:17:43;12.80;99.90
42615;DHT22;28754;47.700;7.924;2023-03-23T18:20:33;12.80;99.90
42615;DHT22;28754;47.700;7.924;2023-03-23T18:27:14;12.80;99.90
42615;DHT22;28754;47.700;7.924;2023-03-23T18:37:03;12.70;99.90
42615;DHT22;28754;47.700;7.924;2023-03-23T18:39:50;12.70;99.90
42615;DHT22;28754;47.700;7.924;2023-03-23T18:42:39;12.70;99.90
42615;DHT22;28754;47.700;7.924;2023-03-23T18:45:29;12.70;99.90
42615;DHT22;28754;47.700;7.924;2023-03-23T18:48:21;12.70;99.90
42615;DHT22;28754;47.700;7.924;2023-03-23T18:51:08;12.70;99.90
42615;DHT22;28754;47.700;7.924;2023-03-23T18:53:56;12.60;99.90
42615;DHT22;28754;47.700;7.924;2023-03-23T18:59:42;12.70;99.90
42615;DHT22;28754;47.700;7.924;2023-03-23T19:02:34;12.70;99.90
42615;DHT22;28754;47.700;7.924;2023-03-23T19:06:12;12.70;99.90
42615;DHT22;28754;47.700;7.924;2023-03-23T19:09:12;12.80;99.90
42615;DHT22;28754;47.700;7.924;2023-03-23T19:11:59;12.80;99.90
42615;DHT22;28754;47.700;7.924;2023-03-23T19:14:46;12.80;99.90
42615;DHT22;28754;47.700;7.924;2023-03-23T19:17:36;12.80;99.90
42615;DHT22;28754;47.700;7.924;2023-03-23T19:20:25;12.90;99.90
42615;DHT22;28754;47.700;7.924;2023-03-23T19:23:22;12.80;99.90
42615;DHT22;28754;47.700;7.924;2023-03-23T19:38:45;12.80;99.90
42615;DHT22;28754;47.700;7.924;2023-03-23T19:41:50;12.80;99.90
42615;DHT22;28754;47.700;7.924;2023-03-23T19:44:40;12.70;99.90
42615;DHT22;28754;47.700;7.924;2023-03-23T19:47:31;12.70;99.90
42615;DHT22;28754;47.700;7.924;2023-03-23T19:50:21;12.80;99.90
42615;DHT22;28754;47.700;7.924;2023-03-23T19:53:38;12.80;99.90